Rook, Pennsylvania
Current Conditions -  °F | °C
As of 3:53 AM on Saturday 20 Dec 2014 (Local Time) from KAGC Reporting Station
Overcast Overcast  
Wind Chill: 27°   Ceiling: 2500
Heat Index: 27°   Visibility: 10mi
Dew Point: 16°   Wind: 3mph
Humidity: 63%   Direction: 10°N
Pressure: 30.22"   Gusts: NA
Location:  40.4193°N, 80.0502°W
Report Text: KAGC 200853Z 01003KT 10SM OVC025 M03/M09 A3022 RMK AO2 SLP253 T10281089 58000
Loading
Personal Weather Stations






























Interactive Weather Map New forecast layout! Learn more

10-Day Weather Forecast

Advertisements
Track Severe Weather on mobile